sensor_id;sensor_type;location;lat;lon;timestamp;pressure;altitude;pressure_sealevel;temperature;humidity
10474;BME280;5284;50.446;7.904;2023-05-25T00:03:52;99183.13;;;7.03;100.00
10474;BME280;5284;50.446;7.904;2023-05-25T00:08:57;99190.56;;;6.96;100.00
10474;BME280;5284;50.446;7.904;2023-05-25T00:14:00;99188.78;;;6.83;100.00
10474;BME280;5284;50.446;7.904;2023-05-25T00:19:04;99192.63;;;6.77;100.00
10474;BME280;5284;50.446;7.904;2023-05-25T00:24:08;99179.66;;;6.73;100.00
10474;BME280;5284;50.446;7.904;2023-05-25T00:29:11;99191.66;;;6.64;100.00
10474;BME280;5284;50.446;7.904;2023-05-25T00:34:15;99179.69;;;6.57;100.00
10474;BME280;5284;50.446;7.904;2023-05-25T00:39:20;99167.88;;;6.49;100.00
10474;BME280;5284;50.446;7.904;2023-05-25T00:44:23;99179.56;;;6.45;100.00
10474;BME280;5284;50.446;7.904;2023-05-25T00:49:27;99174.81;;;6.36;100.00
10474;BME280;5284;50.446;7.904;2023-05-25T00:54:33;99175.34;;;6.27;100.00
10474;BME280;5284;50.446;7.904;2023-05-25T00:59:41;99170.22;;;6.24;100.00
10474;BME280;5284;50.446;7.904;2023-05-25T01:04:49;99171.72;;;6.14;100.00
10474;BME280;5284;50.446;7.904;2023-05-25T01:09:57;99172.72;;;6.11;100.00
10474;BME280;5284;50.446;7.904;2023-05-25T01:15:03;99165.13;;;6.05;100.00
10474;BME280;5284;50.446;7.904;2023-05-25T01:20:06;99155.16;;;5.95;100.00
10474;BME280;5284;50.446;7.904;2023-05-25T01:25:18;99156.84;;;5.96;100.00
10474;BME280;5284;50.446;7.904;2023-05-25T01:30:25;99155.84;;;5.99;100.00
10474;BME280;5284;50.446;7.904;2023-05-25T01:35:30;99154.91;;;5.84;100.00
10474;BME280;5284;50.446;7.904;2023-05-25T01:40:34;99153.38;;;5.80;100.00
10474;BME280;5284;50.446;7.904;2023-05-25T01:45:38;99154.44;;;5.76;100.00
10474;BME280;5284;50.446;7.904;2023-05-25T01:50:46;99156.59;;;5.70;100.00
10474;BME280;5284;50.446;7.904;2023-05-25T01:55:57;99157.00;;;5.62;100.00
10474;BME280;5284;50.446;7.904;2023-05-25T02:01:02;99144.78;;;5.60;100.00
10474;BME280;5284;50.446;7.904;2023-05-25T02:06:06;99151.13;;;5.57;100.00
10474;BME280;5284;50.446;7.904;2023-05-25T02:11:11;99155.72;;;5.54;100.00
10474;BME280;5284;50.446;7.904;2023-05-25T02:16:14;99155.81;;;5.52;100.00
10474;BME280;5284;50.446;7.904;2023-05-25T02:21:19;99151.72;;;5.47;100.00
10474;BME280;5284;50.446;7.904;2023-05-25T02:26:24;99154.00;;;5.37;100.00
10474;BME280;5284;50.446;7.904;2023-05-25T02:31:27;99154.88;;;5.38;100.00
10474;BME280;5284;50.446;7.904;2023-05-25T02:36:30;99155.03;;;5.35;100.00
10474;BME280;5284;50.446;7.904;2023-05-25T02:41:34;99152.78;;;5.27;100.00
10474;BME280;5284;50.446;7.904;2023-05-25T02:46:37;99147.25;;;5.16;100.00
10474;BME280;5284;50.446;7.904;2023-05-25T02:51:40;99149.13;;;5.14;100.00
10474;BME280;5284;50.446;7.904;2023-05-25T02:56:44;99160.69;;;5.12;100.00
10474;BME280;5284;50.446;7.904;2023-05-25T03:01:49;99162.63;;;5.08;100.00
10474;BME280;5284;50.446;7.904;2023-05-25T03:06:52;99175.25;;;5.03;100.00
10474;BME280;5284;50.446;7.904;2023-05-25T03:11:58;99177.66;;;5.08;100.00
10474;BME280;5284;50.446;7.904;2023-05-25T03:17:01;99180.63;;;5.02;100.00
10474;BME280;5284;50.446;7.904;2023-05-25T03:22:05;99184.09;;;5.02;100.00
10474;BME280;5284;50.446;7.904;2023-05-25T03:27:09;99178.53;;;4.91;100.00
10474;BME280;5284;50.446;7.904;2023-05-25T03:32:12;99185.47;;;4.94;100.00
10474;BME280;5284;50.446;7.904;2023-05-25T03:37:16;99189.34;;;4.87;100.00
10474;BME280;5284;50.446;7.904;2023-05-25T03:42:20;99186.47;;;4.91;100.00
10474;BME280;5284;50.446;7.904;2023-05-25T03:47:23;99180.03;;;4.97;100.00
10474;BME280;5284;50.446;7.904;2023-05-25T03:52:26;99189.72;;;4.96;100.00
10474;BME280;5284;50.446;7.904;2023-05-25T03:57:31;99201.50;;;5.06;100.00
10474;BME280;5284;50.446;7.904;2023-05-25T04:02:34;99209.97;;;5.13;100.00
10474;BME280;5284;50.446;7.904;2023-05-25T04:07:37;99203.31;;;5.06;100.00
10474;BME280;5284;50.446;7.904;2023-05-25T04:12:42;99196.69;;;5.14;100.00
10474;BME280;5284;50.446;7.904;2023-05-25T04:18:59;99215.47;;;5.25;100.00
10474;BME280;5284;50.446;7.904;2023-05-25T04:25:16;99213.66;;;5.26;100.00
10474;BME280;5284;50.446;7.904;2023-05-25T04:30:23;99224.56;;;5.37;100.00
10474;BME280;5284;50.446;7.904;2023-05-25T04:35:46;99230.81;;;5.51;100.00
10474;BME280;5284;50.446;7.904;2023-05-25T04:40:51;99227.31;;;5.66;100.00
10474;BME280;5284;50.446;7.904;2023-05-25T04:45:58;99227.13;;;5.86;100.00
10474;BME280;5284;50.446;7.904;2023-05-25T04:51:03;99244.38;;;6.08;100.00
10474;BME280;5284;50.446;7.904;2023-05-25T04:56:08;99247.19;;;6.21;100.00
10474;BME280;5284;50.446;7.904;2023-05-25T05:01:12;99257.84;;;6.35;100.00
10474;BME280;5284;50.446;7.904;2023-05-25T05:06:17;99260.41;;;6.52;100.00
10474;BME280;5284;50.446;7.904;2023-05-25T05:11:20;99276.94;;;6.71;100.00
10474;BME280;5284;50.446;7.904;2023-05-25T05:16:27;99283.72;;;6.90;100.00
10474;BME280;5284;50.446;7.904;2023-05-25T05:21:35;99290.81;;;7.19;100.00
10474;BME280;5284;50.446;7.904;2023-05-25T05:26:40;99304.06;;;7.49;100.00
10474;BME280;5284;50.446;7.904;2023-05-25T05:32:09;99304.06;;;7.76;100.00
10474;BME280;5284;50.446;7.904;2023-05-25T05:37:12;99309.09;;;7.95;100.00
10474;BME280;5284;50.446;7.904;2023-05-25T05:55:17;99309.75;;;9.32;100.00
10474;BME280;5284;50.446;7.904;2023-05-25T06:00:25;99296.69;;;9.79;100.00
10474;BME280;5284;50.446;7.904;2023-05-25T06:05:28;99298.03;;;10.34;100.00
10474;BME280;5284;50.446;7.904;2023-05-25T06:10:35;99295.31;;;10.82;100.00
10474;BME280;5284;50.446;7.904;2023-05-25T06:15:38;99297.16;;;11.16;100.00
10474;BME280;5284;50.446;7.904;2023-05-25T06:20:46;99306.81;;;11.64;100.00
10474;BME280;5284;50.446;7.904;2023-05-25T06:25:51;99312.81;;;12.01;100.00
10474;BME280;5284;50.446;7.904;2023-05-25T06:30:55;99316.13;;;12.37;100.00
10474;BME280;5284;50.446;7.904;2023-05-25T06:36:00;99312.56;;;12.58;100.00
10474;BME280;5284;50.446;7.904;2023-05-25T06:41:04;99317.13;;;12.89;100.00
10474;BME280;5284;50.446;7.904;2023-05-25T06:46:08;99314.06;;;13.05;100.00
10474;BME280;5284;50.446;7.904;2023-05-25T06:51:12;99311.22;;;13.17;100.00
10474;BME280;5284;50.446;7.904;2023-05-25T06:56:16;99320.91;;;13.29;100.00
10474;BME280;5284;50.446;7.904;2023-05-25T07:01:19;99318.78;;;13.44;100.00
10474;BME280;5284;50.446;7.904;2023-05-25T07:06:22;99323.56;;;13.81;100.00
10474;BME280;5284;50.446;7.904;2023-05-25T07:11:27;99311.91;;;13.91;100.00
10474;BME280;5284;50.446;7.904;2023-05-25T07:16:32;99318.63;;;14.27;100.00
10474;BME280;5284;50.446;7.904;2023-05-25T07:21:36;99324.41;;;14.62;98.83
10474;BME280;5284;50.446;7.904;2023-05-25T07:26:42;99323.97;;;14.57;95.58
10474;BME280;5284;50.446;7.904;2023-05-25T07:31:46;99322.13;;;15.25;94.44
10474;BME280;5284;50.446;7.904;2023-05-25T07:36:49;99325.53;;;15.08;93.22
10474;BME280;5284;50.446;7.904;2023-05-25T07:41:55;99319.66;;;15.33;93.26
10474;BME280;5284;50.446;7.904;2023-05-25T07:46:59;99323.03;;;15.73;89.59
10474;BME280;5284;50.446;7.904;2023-05-25T07:52:02;99320.75;;;15.78;87.65
10474;BME280;5284;50.446;7.904;2023-05-25T07:57:10;99316.88;;;15.99;87.83
10474;BME280;5284;50.446;7.904;2023-05-25T08:02:14;99315.97;;;16.90;83.84
10474;BME280;5284;50.446;7.904;2023-05-25T08:07:18;99323.31;;;17.15;80.42
10474;BME280;5284;50.446;7.904;2023-05-25T08:12:23;99316.91;;;16.45;80.64
10474;BME280;5284;50.446;7.904;2023-05-25T08:17:46;99321.13;;;16.57;83.76
10474;BME280;5284;50.446;7.904;2023-05-25T08:22:51;99327.09;;;16.78;75.22
10474;BME280;5284;50.446;7.904;2023-05-25T08:27:56;99320.50;;;16.63;75.93
10474;BME280;5284;50.446;7.904;2023-05-25T08:33:00;99321.19;;;16.29;75.78
10474;BME280;5284;50.446;7.904;2023-05-25T08:38:03;99315.97;;;16.64;73.91
10474;BME280;5284;50.446;7.904;2023-05-25T08:43:07;99312.00;;;17.29;75.03
10474;BME280;5284;50.446;7.904;2023-05-25T08:48:14;99326.16;;;16.70;71.50
10474;BME280;5284;50.446;7.904;2023-05-25T08:53:27;99321.91;;;16.94;73.45
10474;BME280;5284;50.446;7.904;2023-05-25T08:58:38;99316.22;;;18.02;67.98
10474;BME280;5284;50.446;7.904;2023-05-25T09:03:45;99316.06;;;17.86;71.14
10474;BME280;5284;50.446;7.904;2023-05-25T09:08:49;99328.34;;;18.23;67.23
10474;BME280;5284;50.446;7.904;2023-05-25T09:13:55;99321.00;;;17.90;66.06
10474;BME280;5284;50.446;7.904;2023-05-25T09:19:00;99318.09;;;17.66;65.72
10474;BME280;5284;50.446;7.904;2023-05-25T09:24:03;99320.22;;;17.37;66.48
10474;BME280;5284;50.446;7.904;2023-05-25T09:29:08;99331.56;;;18.01;64.76
10474;BME280;5284;50.446;7.904;2023-05-25T09:34:13;99326.66;;;18.22;62.89
10474;BME280;5284;50.446;7.904;2023-05-25T09:39:16;99324.94;;;18.72;63.90
10474;BME280;5284;50.446;7.904;2023-05-25T09:44:21;99331.91;;;18.82;58.28
10474;BME280;5284;50.446;7.904;2023-05-25T09:49:27;99327.78;;;19.12;61.01
10474;BME280;5284;50.446;7.904;2023-05-25T09:54:31;99314.97;;;19.14;58.84
10474;BME280;5284;50.446;7.904;2023-05-25T09:59:35;99322.50;;;19.44;59.49
10474;BME280;5284;50.446;7.904;2023-05-25T10:04:40;99315.53;;;19.33;57.76
10474;BME280;5284;50.446;7.904;2023-05-25T10:09:46;99320.28;;;19.47;59.52
10474;BME280;5284;50.446;7.904;2023-05-25T10:14:52;99321.47;;;19.69;57.86
10474;BME280;5284;50.446;7.904;2023-05-25T10:19:59;99320.13;;;20.44;54.85
10474;BME280;5284;50.446;7.904;2023-05-25T10:25:08;99320.72;;;20.62;56.11
10474;BME280;5284;50.446;7.904;2023-05-25T10:30:16;99321.59;;;20.55;57.69
10474;BME280;5284;50.446;7.904;2023-05-25T10:35:22;99316.75;;;20.81;56.91
10474;BME280;5284;50.446;7.904;2023-05-25T10:40:29;99305.06;;;20.80;52.07
10474;BME280;5284;50.446;7.904;2023-05-25T10:45:34;99321.84;;;21.22;52.23
10474;BME280;5284;50.446;7.904;2023-05-25T10:50:39;99311.53;;;21.40;50.44
10474;BME280;5284;50.446;7.904;2023-05-25T10:55:48;99302.44;;;21.33;49.96
10474;BME280;5284;50.446;7.904;2023-05-25T11:01:00;99296.63;;;21.44;51.52
10474;BME280;5284;50.446;7.904;2023-05-25T11:06:05;99299.13;;;20.85;49.24
10474;BME280;5284;50.446;7.904;2023-05-25T11:11:09;99297.78;;;21.72;49.93
10474;BME280;5284;50.446;7.904;2023-05-25T11:16:20;99292.78;;;21.61;48.92
10474;BME280;5284;50.446;7.904;2023-05-25T11:21:42;99287.19;;;21.77;47.74
10474;BME280;5284;50.446;7.904;2023-05-25T11:26:57;99297.88;;;22.67;47.41
10474;BME280;5284;50.446;7.904;2023-05-25T11:32:10;99289.81;;;22.59;46.00
10474;BME280;5284;50.446;7.904;2023-05-25T11:37:16;99273.22;;;22.54;45.91
10474;BME280;5284;50.446;7.904;2023-05-25T11:42:22;99261.47;;;22.82;48.22
10474;BME280;5284;50.446;7.904;2023-05-25T11:47:27;99263.41;;;23.03;47.51
10474;BME280;5284;50.446;7.904;2023-05-25T11:52:33;99261.75;;;24.00;48.08
10474;BME280;5284;50.446;7.904;2023-05-25T11:57:36;99258.25;;;23.85;46.95
10474;BME280;5284;50.446;7.904;2023-05-25T12:02:42;99260.50;;;24.57;46.42
10474;BME280;5284;50.446;7.904;2023-05-25T12:07:45;99266.41;;;24.33;45.83
10474;BME280;5284;50.446;7.904;2023-05-25T12:12:50;99262.81;;;25.67;43.36
10474;BME280;5284;50.446;7.904;2023-05-25T12:17:56;99250.78;;;25.35;42.76
10474;BME280;5284;50.446;7.904;2023-05-25T12:22:59;99243.50;;;26.14;43.63
10474;BME280;5284;50.446;7.904;2023-05-25T12:28:08;99240.97;;;25.99;42.12
10474;BME280;5284;50.446;7.904;2023-05-25T12:33:13;99240.13;;;26.31;40.38
10474;BME280;5284;50.446;7.904;2023-05-25T12:38:18;99234.41;;;27.15;41.66
10474;BME280;5284;50.446;7.904;2023-05-25T12:43:22;99229.84;;;27.47;39.53
10474;BME280;5284;50.446;7.904;2023-05-25T12:48:27;99228.66;;;29.01;39.24
10474;BME280;5284;50.446;7.904;2023-05-25T12:53:30;99229.56;;;29.72;35.96
10474;BME280;5284;50.446;7.904;2023-05-25T12:58:34;99230.25;;;30.08;34.96
10474;BME280;5284;50.446;7.904;2023-05-25T13:03:39;99222.34;;;29.12;37.57
10474;BME280;5284;50.446;7.904;2023-05-25T13:08:42;99222.00;;;30.54;33.88
10474;BME280;5284;50.446;7.904;2023-05-25T13:13:45;99229.44;;;31.55;35.76
10474;BME280;5284;50.446;7.904;2023-05-25T13:18:49;99208.84;;;31.74;35.17
10474;BME280;5284;50.446;7.904;2023-05-25T13:23:52;99214.84;;;33.55;34.32
10474;BME280;5284;50.446;7.904;2023-05-25T13:28:55;99206.34;;;33.88;31.79
10474;BME280;5284;50.446;7.904;2023-05-25T13:33:59;99208.25;;;31.44;33.31
10474;BME280;5284;50.446;7.904;2023-05-25T13:39:03;99200.59;;;32.40;32.74
10474;BME280;5284;50.446;7.904;2023-05-25T13:44:08;99202.75;;;31.44;34.62
10474;BME280;5284;50.446;7.904;2023-05-25T13:49:17;99199.22;;;33.18;32.17
10474;BME280;5284;50.446;7.904;2023-05-25T13:54:20;99196.34;;;33.34;31.84
10474;BME280;5284;50.446;7.904;2023-05-25T13:59:26;99198.28;;;32.70;32.91
10474;BME280;5284;50.446;7.904;2023-05-25T14:04:32;99194.97;;;32.51;32.88
10474;BME280;5284;50.446;7.904;2023-05-25T14:09:36;99193.84;;;33.59;31.67
10474;BME280;5284;50.446;7.904;2023-05-25T14:14:40;99189.94;;;33.29;31.49
10474;BME280;5284;50.446;7.904;2023-05-25T14:19:46;99185.56;;;33.33;32.21
10474;BME280;5284;50.446;7.904;2023-05-25T14:24:49;99189.56;;;34.00;31.45
10474;BME280;5284;50.446;7.904;2023-05-25T14:29:52;99187.09;;;35.47;29.75
10474;BME280;5284;50.446;7.904;2023-05-25T14:34:57;99182.19;;;36.39;28.54
10474;BME280;5284;50.446;7.904;2023-05-25T14:40:00;99182.63;;;36.86;28.34
10474;BME280;5284;50.446;7.904;2023-05-25T14:45:04;99179.16;;;36.11;28.77
10474;BME280;5284;50.446;7.904;2023-05-25T14:50:13;99180.09;;;35.20;30.02
10474;BME280;5284;50.446;7.904;2023-05-25T14:55:16;99187.63;;;37.04;27.98
10474;BME280;5284;50.446;7.904;2023-05-25T15:00:19;99190.44;;;39.51;27.06
10474;BME280;5284;50.446;7.904;2023-05-25T15:05:23;99184.72;;;40.30;25.86
10474;BME280;5284;50.446;7.904;2023-05-25T15:10:26;99176.84;;;37.89;27.67
10474;BME280;5284;50.446;7.904;2023-05-25T15:15:30;99176.41;;;37.67;26.94
10474;BME280;5284;50.446;7.904;2023-05-25T15:20:34;99176.56;;;37.47;27.32
10474;BME280;5284;50.446;7.904;2023-05-25T15:25:39;99176.28;;;37.39;27.28
10474;BME280;5284;50.446;7.904;2023-05-25T15:30:42;99166.47;;;37.56;27.14
10474;BME280;5284;50.446;7.904;2023-05-25T15:35:46;99170.34;;;39.07;26.34
10474;BME280;5284;50.446;7.904;2023-05-25T15:40:49;99168.75;;;36.76;27.08
10474;BME280;5284;50.446;7.904;2023-05-25T15:45:52;99177.66;;;40.19;25.14
10474;BME280;5284;50.446;7.904;2023-05-25T15:50:56;99176.00;;;38.50;27.00
10474;BME280;5284;50.446;7.904;2023-05-25T15:55:59;99176.00;;;41.58;24.15
10474;BME280;5284;50.446;7.904;2023-05-25T16:01:03;99174.19;;;40.09;25.63
10474;BME280;5284;50.446;7.904;2023-05-25T16:06:09;99184.66;;;44.59;24.33
10474;BME280;5284;50.446;7.904;2023-05-25T16:11:11;99188.72;;;42.87;25.25
10474;BME280;5284;50.446;7.904;2023-05-25T16:16:14;99183.78;;;38.25;28.31
10474;BME280;5284;50.446;7.904;2023-05-25T16:21:20;99172.38;;;35.52;30.67
10474;BME280;5284;50.446;7.904;2023-05-25T16:26:23;99171.50;;;39.85;27.64
10474;BME280;5284;50.446;7.904;2023-05-25T16:31:27;99177.59;;;38.28;28.47
10474;BME280;5284;50.446;7.904;2023-05-25T16:36:31;99185.25;;;40.32;26.29
10474;BME280;5284;50.446;7.904;2023-05-25T16:41:35;99194.50;;;41.94;25.81
10474;BME280;5284;50.446;7.904;2023-05-25T16:46:38;99188.56;;;41.95;26.03
10474;BME280;5284;50.446;7.904;2023-05-25T16:51:44;99192.00;;;39.39;27.70
10474;BME280;5284;50.446;7.904;2023-05-25T16:56:47;99186.22;;;39.54;27.54
10474;BME280;5284;50.446;7.904;2023-05-25T17:01:50;99186.84;;;38.57;28.13
10474;BME280;5284;50.446;7.904;2023-05-25T17:06:55;99172.41;;;37.88;27.87
10474;BME280;5284;50.446;7.904;2023-05-25T17:11:58;99187.00;;;38.94;28.85
10474;BME280;5284;50.446;7.904;2023-05-25T17:17:02;99191.91;;;39.02;27.95
10474;BME280;5284;50.446;7.904;2023-05-25T17:22:07;99182.28;;;37.66;28.70
10474;BME280;5284;50.446;7.904;2023-05-25T17:27:09;99184.16;;;37.32;29.05
10474;BME280;5284;50.446;7.904;2023-05-25T17:32:12;99181.16;;;31.69;35.16
10474;BME280;5284;50.446;7.904;2023-05-25T17:37:17;99184.00;;;29.17;37.81
10474;BME280;5284;50.446;7.904;2023-05-25T17:42:21;99181.31;;;27.78;40.18
10474;BME280;5284;50.446;7.904;2023-05-25T17:47:26;99184.63;;;25.72;43.63
10474;BME280;5284;50.446;7.904;2023-05-25T18:05:32;99201.91;;;22.73;48.52
10474;BME280;5284;50.446;7.904;2023-05-25T18:10:36;99208.41;;;22.57;49.47
10474;BME280;5284;50.446;7.904;2023-05-25T18:15:41;99213.38;;;22.10;50.55
10474;BME280;5284;50.446;7.904;2023-05-25T18:20:46;99223.50;;;21.43;51.52
10474;BME280;5284;50.446;7.904;2023-05-25T18:25:49;99213.00;;;20.95;53.21
10474;BME280;5284;50.446;7.904;2023-05-25T18:30:53;99209.47;;;20.10;56.52
10474;BME280;5284;50.446;7.904;2023-05-25T18:35:57;99211.34;;;20.01;58.64
10474;BME280;5284;50.446;7.904;2023-05-25T18:41:00;99221.63;;;19.98;58.35
10474;BME280;5284;50.446;7.904;2023-05-25T18:46:03;99217.28;;;19.65;62.07
10474;BME280;5284;50.446;7.904;2023-05-25T18:51:08;99227.09;;;19.34;63.20
10474;BME280;5284;50.446;7.904;2023-05-25T18:56:13;99233.47;;;19.09;65.23
10474;BME280;5284;50.446;7.904;2023-05-25T19:01:16;99232.75;;;18.83;66.39
10474;BME280;5284;50.446;7.904;2023-05-25T19:06:21;99238.69;;;18.45;68.58
10474;BME280;5284;50.446;7.904;2023-05-25T19:11:24;99241.31;;;18.29;69.73
10474;BME280;5284;50.446;7.904;2023-05-25T19:16:27;99244.47;;;18.25;71.31
10474;BME280;5284;50.446;7.904;2023-05-25T19:21:32;99248.78;;;17.84;73.80
10474;BME280;5284;50.446;7.904;2023-05-25T19:26:35;99254.22;;;17.67;76.48
10474;BME280;5284;50.446;7.904;2023-05-25T19:31:39;99267.97;;;17.56;74.60
10474;BME280;5284;50.446;7.904;2023-05-25T19:36:43;99273.13;;;17.49;70.92
10474;BME280;5284;50.446;7.904;2023-05-25T19:41:49;99271.34;;;17.23;72.51
10474;BME280;5284;50.446;7.904;2023-05-25T19:46:53;99283.78;;;16.89;74.76
10474;BME280;5284;50.446;7.904;2023-05-25T19:51:57;99282.19;;;16.69;74.61
10474;BME280;5284;50.446;7.904;2023-05-25T19:57:00;99303.59;;;16.44;74.23
10474;BME280;5284;50.446;7.904;2023-05-25T20:02:04;99304.72;;;16.32;75.54
10474;BME280;5284;50.446;7.904;2023-05-25T20:07:09;99300.69;;;16.18;74.72
10474;BME280;5284;50.446;7.904;2023-05-25T20:12:12;99315.06;;;16.00;75.05
10474;BME280;5284;50.446;7.904;2023-05-25T20:17:18;99323.56;;;15.86;77.84
10474;BME280;5284;50.446;7.904;2023-05-25T20:22:23;99325.72;;;15.73;75.09
10474;BME280;5284;50.446;7.904;2023-05-25T20:27:27;99328.56;;;15.52;78.75
10474;BME280;5284;50.446;7.904;2023-05-25T20:32:30;99333.34;;;15.39;79.36
10474;BME280;5284;50.446;7.904;2023-05-25T20:37:34;99344.47;;;15.16;84.70
10474;BME280;5284;50.446;7.904;2023-05-25T20:42:38;99340.31;;;14.93;87.22
10474;BME280;5284;50.446;7.904;2023-05-25T20:47:40;99345.78;;;14.73;87.94
10474;BME280;5284;50.446;7.904;2023-05-25T20:52:45;99346.28;;;14.57;87.72
10474;BME280;5284;50.446;7.904;2023-05-25T20:57:48;99351.94;;;14.54;86.65
10474;BME280;5284;50.446;7.904;2023-05-25T21:02:51;99358.72;;;14.49;83.72
10474;BME280;5284;50.446;7.904;2023-05-25T21:07:56;99354.41;;;14.37;83.56
10474;BME280;5284;50.446;7.904;2023-05-25T21:12:59;99362.94;;;14.21;86.87
10474;BME280;5284;50.446;7.904;2023-05-25T21:18:02;99360.25;;;14.01;90.02
10474;BME280;5284;50.446;7.904;2023-05-25T21:23:07;99367.19;;;13.83;91.71
10474;BME280;5284;50.446;7.904;2023-05-25T21:28:10;99370.16;;;13.69;93.63
10474;BME280;5284;50.446;7.904;2023-05-25T21:33:13;99363.09;;;13.48;94.10
10474;BME280;5284;50.446;7.904;2023-05-25T21:38:18;99361.38;;;13.47;92.92
10474;BME280;5284;50.446;7.904;2023-05-25T21:43:21;99367.97;;;13.43;95.17
10474;BME280;5284;50.446;7.904;2023-05-25T21:48:24;99368.09;;;13.10;99.16
10474;BME280;5284;50.446;7.904;2023-05-25T21:53:29;99383.59;;;12.95;99.85
10474;BME280;5284;50.446;7.904;2023-05-25T21:58:32;99380.78;;;12.75;100.00
10474;BME280;5284;50.446;7.904;2023-05-25T22:03:34;99388.81;;;12.53;100.00
10474;BME280;5284;50.446;7.904;2023-05-25T22:08:39;99384.31;;;12.31;100.00
10474;BME280;5284;50.446;7.904;2023-05-25T22:13:42;99376.63;;;12.16;100.00
10474;BME280;5284;50.446;7.904;2023-05-25T22:18:45;99378.69;;;12.02;100.00
10474;BME280;5284;50.446;7.904;2023-05-25T22:23:49;99379.97;;;11.85;100.00
10474;BME280;5284;50.446;7.904;2023-05-25T22:28:52;99389.28;;;11.69;100.00
10474;BME280;5284;50.446;7.904;2023-05-25T22:33:55;99388.72;;;11.53;100.00
10474;BME280;5284;50.446;7.904;2023-05-25T22:38:59;99393.88;;;11.43;100.00
10474;BME280;5284;50.446;7.904;2023-05-25T22:44:04;99388.00;;;11.27;100.00
10474;BME280;5284;50.446;7.904;2023-05-25T22:49:06;99395.38;;;11.24;100.00
10474;BME280;5284;50.446;7.904;2023-05-25T22:54:11;99407.19;;;11.09;100.00
10474;BME280;5284;50.446;7.904;2023-05-25T22:59:14;99411.94;;;10.93;100.00
10474;BME280;5284;50.446;7.904;2023-05-25T23:04:17;99392.97;;;10.85;100.00
10474;BME280;5284;50.446;7.904;2023-05-25T23:09:22;99398.66;;;10.68;100.00
10474;BME280;5284;50.446;7.904;2023-05-25T23:14:24;99394.63;;;10.63;100.00
10474;BME280;5284;50.446;7.904;2023-05-25T23:19:27;99388.03;;;10.56;100.00
10474;BME280;5284;50.446;7.904;2023-05-25T23:24:31;99393.47;;;10.42;100.00
10474;BME280;5284;50.446;7.904;2023-05-25T23:29:34;99395.19;;;10.30;100.00
10474;BME280;5284;50.446;7.904;2023-05-25T23:34:37;99397.75;;;10.19;100.00
10474;BME280;5284;50.446;7.904;2023-05-25T23:39:42;99404.06;;;10.18;100.00
10474;BME280;5284;50.446;7.904;2023-05-25T23:44:45;99401.69;;;10.14;100.00
10474;BME280;5284;50.446;7.904;2023-05-25T23:49:48;99403.09;;;10.07;100.00
10474;BME280;5284;50.446;7.904;2023-05-25T23:54:52;99405.63;;;9.96;100.00
10474;BME280;5284;50.446;7.904;2023-05-25T23:59:55;99401.00;;;9.85;100.00
